Time;durP1;ratioP1;P1;durP2;ratioP2;P2;SDS_P1;SDS_P2;PMS_P1;PMS_P2;Temp;Humidity;BMP_temperature;BMP_pressure;BME280_temperature;BME280_humidity;BME280_pressure;Samples;Min_cycle;Max_cycle;Signal;HPM_P1;HPM_P2
2022/08/22 00:01:42;;;;;;;19.80;11.50;;;;;;;;;;5072748;28;20024;-64
2022/08/22 00:04:14;;;;;;;19.85;11.68;;;;;;;;;;5072428;28;20381;-64
2022/08/22 00:06:49;;;;;;;20.38;11.23;;;;;;;;;;5072314;28;20039;-64
2022/08/22 00:09:23;;;;;;;17.30;10.90;;;;;;;;;;5071678;28;20040;-64
2022/08/22 00:11:56;;;;;;;20.55;11.50;;;;;;;;;;5072360;28;20050;-64
2022/08/22 00:14:29;;;;;;;21.23;11.48;;;;;;;;;;5072266;28;20032;-62
2022/08/22 00:17:04;;;;;;;19.92;11.13;;;;;;;;;;5072434;28;20626;-63
2022/08/22 00:19:40;;;;;;;24.30;12.13;;;;;;;;;;5071999;28;20013;-62
2022/08/22 00:22:06;;;;;;;21.63;11.57;;;;;;;;;;5072516;28;20016;-63
2022/08/22 00:24:45;;;;;;;20.30;11.75;;;;;;;;;;5072430;28;20043;-63
2022/08/22 00:27:20;;;;;;;17.88;11.85;;;;;;;;;;5053818;28;20048;-63
2022/08/22 00:29:54;;;;;;;20.98;12.75;;;;;;;;;;5072049;28;20024;-63
2022/08/22 00:32:30;;;;;;;19.00;11.75;;;;;;;;;;5072210;28;20082;-63
2022/08/22 00:35:06;;;;;;;20.85;11.68;;;;;;;;;;5071952;28;20025;-63
2022/08/22 00:37:36;;;;;;;21.65;11.90;;;;;;;;;;5071650;28;20052;-63
2022/08/22 00:40:11;;;;;;;25.40;11.80;;;;;;;;;;5072020;28;20031;-63
2022/08/22 00:42:44;;;;;;;20.83;11.60;;;;;;;;;;5072154;28;20418;-63
2022/08/22 00:45:28;;;;;;;20.45;12.63;;;;;;;;;;5072128;28;20473;-63
2022/08/22 00:47:57;;;;;;;19.90;11.85;;;;;;;;;;5071582;28;20029;-63
2022/08/22 00:50:41;;;;;;;22.58;11.70;;;;;;;;;;5072377;28;20053;-63
2022/08/22 00:53:16;;;;;;;20.08;12.45;;;;;;;;;;5072474;28;20049;-63
2022/08/22 00:55:58;;;;;;;19.98;12.50;;;;;;;;;;5072565;28;20039;-63
2022/08/22 00:58:43;;;;;;;20.40;11.45;;;;;;;;;;5073971;28;20484;-63
2022/08/22 01:01:11;;;;;;;20.60;11.35;;;;;;;;;;5075377;28;20090;-63
2022/08/22 01:04:00;;;;;;;20.00;11.63;;;;;;;;;;5075540;28;20024;-63
2022/08/22 01:06:44;;;;;;;18.25;11.48;;;;;;;;;;5075298;28;20503;-63
2022/08/22 01:09:22;;;;;;;23.52;12.23;;;;;;;;;;5075257;28;20024;-63
2022/08/22 01:11:51;;;;;;;20.35;11.60;;;;;;;;;;5075907;28;20491;-63
2022/08/22 01:14:23;;;;;;;20.52;12.40;;;;;;;;;;5075391;28;20097;-63
2022/08/22 01:16:59;;;;;;;20.02;11.73;;;;;;;;;;5075185;28;20384;-63
2022/08/22 01:19:48;;;;;;;20.23;12.68;;;;;;;;;;5074316;28;20025;-63
2022/08/22 01:22:33;;;;;;;22.90;12.18;;;;;;;;;;5075154;28;20032;-63
2022/08/22 01:25:17;;;;;;;20.85;11.70;;;;;;;;;;5056987;28;20067;-63
2022/08/22 01:27:56;;;;;;;17.92;11.52;;;;;;;;;;5074264;28;20373;-64
2022/08/22 01:30:31;;;;;;;19.13;12.07;;;;;;;;;;5074962;28;20572;-62
2022/08/22 01:33:06;;;;;;;20.98;11.80;;;;;;;;;;5074763;28;20373;-62
2022/08/22 01:35:32;;;;;;;22.23;12.60;;;;;;;;;;5074675;28;20028;-62
2022/08/22 01:38:17;;;;;;;20.83;12.57;;;;;;;;;;5074160;28;20499;-62
2022/08/22 01:40:45;;;;;;;22.35;12.23;;;;;;;;;;5074734;28;20507;-62
2022/08/22 01:43:24;;;;;;;21.38;12.60;;;;;;;;;;5074531;28;20099;-62
2022/08/22 01:45:56;;;;;;;21.55;12.05;;;;;;;;;;5074525;28;20481;-62
2022/08/22 01:48:37;;;;;;;19.23;11.73;;;;;;;;;;5073932;28;20021;-61
2022/08/22 01:51:12;;;;;;;21.38;12.25;;;;;;;;;;5074442;28;20485;-62
2022/08/22 01:53:52;;;;;;;22.05;13.95;;;;;;;;;;5074476;28;20070;-62
2022/08/22 01:56:20;;;;;;;18.48;11.90;;;;;;;;;;5074092;28;20520;-62
2022/08/22 01:58:57;;;;;;;16.67;11.65;;;;;;;;;;5073689;28;20095;-62
2022/08/22 02:01:33;;;;;;;18.63;12.52;;;;;;;;;;5074340;28;20021;-63
2022/08/22 02:04:04;;;;;;;19.27;12.50;;;;;;;;;;5074208;28;20476;-63
2022/08/22 02:06:33;;;;;;;19.77;12.55;;;;;;;;;;5074203;28;20048;-63
2022/08/22 02:09:19;;;;;;;19.63;12.40;;;;;;;;;;5072614;28;20028;-63
2022/08/22 02:11:56;;;;;;;18.60;12.68;;;;;;;;;;5066747;28;20119;-63
2022/08/22 02:14:35;;;;;;;21.70;13.13;;;;;;;;;;5074194;28;20048;-63
2022/08/22 02:17:17;;;;;;;17.58;12.05;;;;;;;;;;5073980;28;20112;-63
2022/08/22 02:19:54;;;;;;;19.30;12.07;;;;;;;;;;5073225;28;20016;-63
2022/08/22 02:22:26;;;;;;;20.67;13.05;;;;;;;;;;5055502;28;20389;-63
2022/08/22 02:25:22;;;;;;;19.55;12.55;;;;;;;;;;5073139;28;20028;-62
2022/08/22 02:27:55;;;;;;;22.95;13.45;;;;;;;;;;5064293;28;20546;-62
2022/08/22 02:30:25;;;;;;;18.40;12.73;;;;;;;;;;5073813;28;20086;-62
2022/08/22 02:32:51;;;;;;;23.92;12.98;;;;;;;;;;5073751;28;20024;-63
2022/08/22 02:35:16;;;;;;;20.70;12.73;;;;;;;;;;5073329;28;20020;-62
2022/08/22 02:37:53;;;;;;;19.40;13.38;;;;;;;;;;5072469;28;20115;-62
2022/08/22 02:40:22;;;;;;;22.98;13.40;;;;;;;;;;5073178;28;20059;-63
2022/08/22 02:42:51;;;;;;;22.02;13.02;;;;;;;;;;5073504;28;20059;-63
2022/08/22 02:45:28;;;;;;;22.63;13.80;;;;;;;;;;5073483;28;20076;-63
2022/08/22 02:48:10;;;;;;;22.50;13.50;;;;;;;;;;5072917;28;20407;-63
2022/08/22 02:50:42;;;;;;;21.88;13.45;;;;;;;;;;5055016;28;20055;-63
2022/08/22 02:53:13;;;;;;;19.50;13.25;;;;;;;;;;5071690;28;20384;-62
2022/08/22 02:55:46;;;;;;;19.65;12.70;;;;;;;;;;5073163;28;20055;-63
2022/08/22 02:58:15;;;;;;;20.92;13.40;;;;;;;;;;5072739;28;20016;-63
2022/08/22 03:00:44;;;;;;;21.80;13.60;;;;;;;;;;5055281;28;20484;-63
2022/08/22 03:03:16;;;;;;;20.20;13.15;;;;;;;;;;5055371;28;20055;-63
2022/08/22 03:05:42;;;;;;;21.65;14.20;;;;;;;;;;5073166;28;20028;-63
2022/08/22 03:08:20;;;;;;;22.73;13.93;;;;;;;;;;5072693;28;20029;-63
2022/08/22 03:10:57;;;;;;;21.02;13.40;;;;;;;;;;5072983;28;20021;-63
2022/08/22 03:13:35;;;;;;;24.83;15.02;;;;;;;;;;5072987;28;20089;-63
2022/08/22 03:16:31;;;;;;;22.10;13.60;;;;;;;;;;5072784;28;20396;-62
2022/08/22 03:19:08;;;;;;;22.20;13.93;;;;;;;;;;5062988;28;20128;-64
2022/08/22 03:21:53;;;;;;;21.67;13.25;;;;;;;;;;5072213;28;20016;-61
2022/08/22 03:24:42;;;;;;;21.02;14.00;;;;;;;;;;5072564;28;20050;-63
2022/08/22 03:27:16;;;;;;;21.27;13.43;;;;;;;;;;5072228;28;20032;-63
2022/08/22 03:29:48;;;;;;;24.85;13.93;;;;;;;;;;5072808;28;20024;-63
2022/08/22 03:32:20;;;;;;;21.85;13.52;;;;;;;;;;5072613;28;20021;-63
2022/08/22 03:35:02;;;;;;;23.17;13.57;;;;;;;;;;5072629;28;20081;-63
2022/08/22 03:37:39;;;;;;;21.05;13.43;;;;;;;;;;5071358;28;20456;-63
2022/08/22 03:40:37;;;;;;;20.95;13.48;;;;;;;;;;5072799;28;20076;-63
2022/08/22 03:43:03;;;;;;;;;;;;;;;;;;5051035;28;20040;-63
2022/08/22 03:45:48;;;;;;;21.65;13.23;;;;;;;;;;5054631;28;19909;-64
2022/08/22 03:48:23;;;;;;;20.65;13.95;;;;;;;;;;5071852;28;20033;-63
2022/08/22 03:50:49;;;;;;;21.27;14.35;;;;;;;;;;5072333;28;20051;-63
2022/08/22 03:53:18;;;;;;;21.85;14.25;;;;;;;;;;5072496;28;20020;-63
2022/08/22 03:55:47;;;;;;;22.23;14.45;;;;;;;;;;5072318;28;20032;-63
2022/08/22 03:58:13;;;;;;;21.63;14.65;;;;;;;;;;5071535;28;20051;-63
2022/08/22 04:00:52;;;;;;;23.50;14.40;;;;;;;;;;5072348;28;20025;-62
2022/08/22 04:03:37;;;;;;;22.02;14.90;;;;;;;;;;5072136;28;20085;-63
2022/08/22 04:06:05;;;;;;;21.38;13.38;;;;;;;;;;5072089;28;20027;-63
2022/08/22 04:08:31;;;;;;;;;;;;;;;;;;5072059;28;20039;-63
2022/08/22 04:11:16;;;;;;;22.60;14.60;;;;;;;;;;5071903;28;19904;-63
2022/08/22 04:14:02;;;;;;;23.75;15.15;;;;;;;;;;5072194;28;20406;-64
2022/08/22 04:16:39;;;;;;;24.33;15.23;;;;;;;;;;5050772;28;20075;-63
2022/08/22 04:19:08;;;;;;;21.15;14.77;;;;;;;;;;5053519;28;20453;-63
2022/08/22 04:21:50;;;;;;;20.60;15.05;;;;;;;;;;5054337;28;20047;-63
2022/08/22 04:24:19;;;;;;;24.58;14.85;;;;;;;;;;5072053;28;20021;-63
2022/08/22 04:26:51;;;;;;;19.90;14.32;;;;;;;;;;5071847;28;20028;-63
2022/08/22 04:29:24;;;;;;;20.77;14.68;;;;;;;;;;5071297;28;20099;-63
2022/08/22 04:32:00;;;;;;;26.00;16.13;;;;;;;;;;5072322;28;20089;-63
2022/08/22 04:34:47;;;;;;;23.77;14.60;;;;;;;;;;5075938;28;20028;-63
2022/08/22 04:37:17;;;;;;;34.97;16.10;;;;;;;;;;5075377;28;20025;-63
2022/08/22 04:39:43;;;;;;;21.35;15.60;;;;;;;;;;5075878;28;20028;-63
2022/08/22 04:42:13;;;;;;;27.58;15.98;;;;;;;;;;5075733;28;20048;-63
2022/08/22 04:44:42;;;;;;;22.77;15.20;;;;;;;;;;5075609;28;20025;-63
2022/08/22 04:47:23;;;;;;;24.58;16.08;;;;;;;;;;5075127;28;20080;-63
2022/08/22 04:49:54;;;;;;;22.42;15.15;;;;;;;;;;5075372;28;20025;-63
2022/08/22 04:52:20;;;;;;;24.20;15.00;;;;;;;;;;5075672;28;20111;-64
2022/08/22 04:55:00;;;;;;;24.38;15.77;;;;;;;;;;5075007;28;20059;-64
2022/08/22 04:57:45;;;;;;;25.67;16.73;;;;;;;;;;5056637;28;20024;-63
2022/08/22 05:00:11;;;;;;;27.45;15.98;;;;;;;;;;5075102;28;20392;-63
2022/08/22 05:02:39;;;;;;;25.20;16.67;;;;;;;;;;5075134;28;20020;-63
2022/08/22 05:05:10;;;;;;;22.15;15.85;;;;;;;;;;5075417;28;20024;-62
2022/08/22 05:07:48;;;;;;;23.92;16.20;;;;;;;;;;5074209;28;20055;-63
2022/08/22 05:10:31;;;;;;;20.35;15.43;;;;;;;;;;5072223;28;20016;-63
2022/08/22 05:13:01;;;;;;;22.33;15.65;;;;;;;;;;5068212;28;20420;-63
2022/08/22 05:15:32;;;;;;;23.80;16.00;;;;;;;;;;5074696;28;20024;-63
2022/08/22 05:18:01;;;;;;;21.92;15.48;;;;;;;;;;5072456;28;20021;-62
2022/08/22 05:20:28;;;;;;;25.67;15.32;;;;;;;;;;5055006;28;20154;-64
2022/08/22 05:22:57;;;;;;;21.15;15.98;;;;;;;;;;5054019;28;20025;-63
2022/08/22 05:25:26;;;;;;;22.60;16.27;;;;;;;;;;5054090;28;20025;-63
2022/08/22 05:27:54;;;;;;;29.98;23.60;;;;;;;;;;5066675;28;20119;-62
2022/08/22 05:30:21;;;;;;;;;;;;;;;;;;5056966;28;20272;-63
2022/08/22 05:32:50;;;;;;;29.40;20.13;;;;;;;;;;5074350;28;19992;-61
2022/08/22 05:35:17;;;;;;;27.15;18.95;;;;;;;;;;5074162;28;20411;-62
2022/08/22 05:37:46;;;;;;;28.25;19.60;;;;;;;;;;5073596;28;20025;-62
2022/08/22 05:40:29;;;;;;;27.05;20.73;;;;;;;;;;5074970;28;20048;-62
2022/08/22 05:42:56;;;;;;;25.27;18.73;;;;;;;;;;5074087;28;20078;-63
2022/08/22 05:45:22;;;;;;;24.15;16.77;;;;;;;;;;5057191;28;20025;-63
2022/08/22 05:47:51;;;;;;;23.35;15.20;;;;;;;;;;5035397;28;20051;-62
2022/08/22 05:50:27;;;;;;;23.13;16.25;;;;;;;;;;5053997;28;20025;-61
2022/08/22 05:53:02;;;;;;;24.95;16.45;;;;;;;;;;5053837;28;20433;-69
2022/08/22 05:55:31;;;;;;;24.15;16.30;;;;;;;;;;5054715;28;20033;-63
2022/08/22 05:58:03;;;;;;;29.63;15.45;;;;;;;;;;5035931;28;20033;-63
2022/08/22 06:00:32;;;;;;;21.63;14.93;;;;;;;;;;5035791;28;20120;-63
2022/08/22 06:02:57;;;;;;;;;;;;;;;;;;5054295;28;20036;-64
2022/08/22 06:05:35;;;;;;;21.40;14.15;;;;;;;;;;5053707;28;20487;-64
2022/08/22 06:08:07;;;;;;;23.08;14.50;;;;;;;;;;5053323;28;20052;-64
2022/08/22 06:10:34;;;;;;;20.98;14.80;;;;;;;;;;5063407;28;20028;-63
2022/08/22 06:13:00;;;;;;;24.88;14.45;;;;;;;;;;5073762;28;20021;-63
2022/08/22 06:15:46;;;;;;;24.38;14.93;;;;;;;;;;5073620;28;20115;-61
2022/08/22 06:18:13;;;;;;;21.92;14.77;;;;;;;;;;5073265;28;20029;-61
2022/08/22 06:20:47;;;;;;;21.48;14.82;;;;;;;;;;5056127;28;20028;-61
2022/08/22 06:23:16;;;;;;;27.27;14.85;;;;;;;;;;5073766;28;20020;-60
2022/08/22 06:25:44;;;;;;;30.10;15.13;;;;;;;;;;5055420;28;20024;-61
2022/08/22 06:28:12;;;;;;;19.98;13.15;;;;;;;;;;5073292;28;20028;-60
2022/08/22 06:30:38;;;;;;;23.30;14.40;;;;;;;;;;5073886;28;20029;-61
2022/08/22 06:33:10;;;;;;;22.52;14.25;;;;;;;;;;5073432;28;20036;-61
2022/08/22 06:38:33;;;;;;;25.17;14.70;;;;;;;;;;5073462;28;20035;-61
2022/08/22 06:41:05;;;;;;;27.20;14.65;;;;;;;;;;5073365;28;20017;-61
2022/08/22 06:43:42;;;;;;;24.77;14.98;;;;;;;;;;5072882;28;20112;-61
2022/08/22 06:46:08;;;;;;;24.23;15.05;;;;;;;;;;5053014;28;20029;-61
2022/08/22 06:48:36;;;;;;;22.92;14.27;;;;;;;;;;5034213;28;20029;-61
2022/08/22 06:51:03;;;;;;;22.02;14.23;;;;;;;;;;5053110;28;20127;-62
2022/08/22 06:53:43;;;;;;;21.58;14.10;;;;;;;;;;5052921;28;20039;-62
2022/08/22 06:56:10;;;;;;;21.95;14.13;;;;;;;;;;5034281;28;20090;-62
2022/08/22 06:58:44;;;;;;;24.27;14.13;;;;;;;;;;5051910;28;20401;-62
2022/08/22 07:01:12;;;;;;;22.70;13.70;;;;;;;;;;5053084;28;20021;-61
2022/08/22 07:03:44;;;;;;;20.77;13.32;;;;;;;;;;5052573;28;20021;-61
2022/08/22 07:06:15;;;;;;;20.27;13.02;;;;;;;;;;5052649;28;20029;-63
2022/08/22 07:08:42;;;;;;;27.65;15.15;;;;;;;;;;5052034;28;20117;-62
2022/08/22 07:11:17;;;;;;;19.35;13.35;;;;;;;;;;5055226;28;20032;-61
2022/08/22 07:13:49;;;;;;;24.33;13.35;;;;;;;;;;5072116;28;20051;-63
2022/08/22 07:16:15;;;;;;;19.65;13.52;;;;;;;;;;5072274;28;20031;-61
2022/08/22 07:18:48;;;;;;;19.40;14.30;;;;;;;;;;5071969;28;20396;-61
2022/08/22 07:21:23;;;;;;;22.08;13.88;;;;;;;;;;5054818;28;20021;-62
2022/08/22 07:23:49;;;;;;;23.15;14.30;;;;;;;;;;5073262;28;20095;-62
2022/08/22 07:26:39;;;;;;;21.50;14.10;;;;;;;;;;5072682;28;20054;-61
2022/08/22 07:29:05;;;;;;;24.67;15.00;;;;;;;;;;5058944;28;20054;-60
2022/08/22 07:31:34;;;;;;;24.15;14.60;;;;;;;;;;5072827;28;20029;-60
2022/08/22 07:34:09;;;;;;;20.30;14.25;;;;;;;;;;5072478;28;20497;-62
2022/08/22 07:36:42;;;;;;;22.38;14.45;;;;;;;;;;5072807;28;20024;-62
2022/08/22 07:39:14;;;;;;;23.35;15.38;;;;;;;;;;5072274;28;20056;-62
2022/08/22 07:41:43;;;;;;;20.45;15.63;;;;;;;;;;5072776;28;20439;-61
2022/08/22 07:44:14;;;;;;;23.25;16.27;;;;;;;;;;5072848;28;20470;-60
2022/08/22 07:46:46;;;;;;;22.92;16.23;;;;;;;;;;5072555;28;20036;-61
2022/08/22 07:49:21;;;;;;;19.05;14.43;;;;;;;;;;5071807;28;20038;-62
2022/08/22 07:51:50;;;;;;;22.02;15.57;;;;;;;;;;5073541;28;20032;-61
2022/08/22 07:54:22;;;;;;;20.30;14.68;;;;;;;;;;5072122;28;20373;-62
2022/08/22 07:57:02;;;;;;;20.60;14.68;;;;;;;;;;5072283;28;20071;-62
2022/08/22 07:59:29;;;;;;;23.42;14.80;;;;;;;;;;5072002;28;20031;-62
2022/08/22 08:01:57;;;;;;;21.52;14.98;;;;;;;;;;5072445;28;20487;-62
2022/08/22 08:04:25;;;;;;;22.30;15.00;;;;;;;;;;5054233;28;20021;-62
2022/08/22 08:06:52;;;;;;;21.63;15.15;;;;;;;;;;5072523;28;20074;-62
2022/08/22 08:09:19;;;;;;;20.25;14.85;;;;;;;;;;5058449;28;20032;-60
2022/08/22 08:11:46;;;;;;;22.20;15.30;;;;;;;;;;5075808;28;20051;-59
2022/08/22 08:14:15;;;;;;;21.33;15.67;;;;;;;;;;5076155;28;20024;-59
2022/08/22 08:16:51;;;;;;;21.98;15.93;;;;;;;;;;5075744;28;20278;-59
2022/08/22 08:19:18;;;;;;;20.83;16.00;;;;;;;;;;5075394;28;20150;-59
2022/08/22 08:21:48;;;;;;;21.98;16.55;;;;;;;;;;5076048;28;20032;-54
2022/08/22 08:24:17;;;;;;;19.88;15.00;;;;;;;;;;5076144;28;20052;-52
2022/08/22 08:29:32;;;;;;;21.42;14.38;;;;;;;;;;5075494;28;20082;-54
2022/08/22 08:31:59;;;;;;;24.67;15.55;;;;;;;;;;5075757;28;20028;-55
2022/08/22 08:34:27;;;;;;;20.60;15.60;;;;;;;;;;5075791;28;20054;-58
2022/08/22 08:37:00;;;;;;;22.85;16.17;;;;;;;;;;5057245;28;20032;-54
2022/08/22 08:39:32;;;;;;;22.15;16.10;;;;;;;;;;5074959;28;20021;-56
2022/08/22 08:42:07;;;;;;;22.20;16.75;;;;;;;;;;5075534;28;20024;-55
2022/08/22 08:44:45;;;;;;;19.83;15.82;;;;;;;;;;5075970;28;20032;-57
2022/08/22 08:47:30;;;;;;;22.33;15.88;;;;;;;;;;5076154;28;20111;-55
2022/08/22 08:49:56;;;;;;;23.42;17.38;;;;;;;;;;5075586;28;20127;-57
2022/08/22 08:52:30;;;;;;;23.45;16.45;;;;;;;;;;5075128;28;20116;-51
2022/08/22 08:55:19;;;;;;;22.17;15.30;;;;;;;;;;5075131;28;20037;-57
2022/08/22 08:58:02;;;;;;;23.05;15.88;;;;;;;;;;5072670;28;20508;-57
2022/08/22 09:00:41;;;;;;;21.02;14.70;;;;;;;;;;5074913;28;20086;-56
2022/08/22 09:03:10;;;;;;;22.40;15.35;;;;;;;;;;5075319;28;20543;-55
2022/08/22 09:05:48;;;;;;;19.70;14.77;;;;;;;;;;5074963;28;20036;-57
2022/08/22 09:08:15;;;;;;;;;;;;;;;;;;5074868;28;20016;-56
2022/08/22 09:10:41;;;;;;;20.60;15.15;;;;;;;;;;5074681;28;20372;-56
2022/08/22 09:13:17;;;;;;;20.25;15.15;;;;;;;;;;5074691;28;20020;-57
2022/08/22 09:15:49;;;;;;;20.48;14.65;;;;;;;;;;5074676;28;20055;-63
2022/08/22 09:18:16;;;;;;;20.35;15.05;;;;;;;;;;5073528;28;20036;-63
2022/08/22 09:20:51;;;;;;;20.83;15.45;;;;;;;;;;5074744;28;20032;-63
2022/08/22 09:23:35;;;;;;;23.17;15.45;;;;;;;;;;5075035;28;20024;-64
2022/08/22 09:26:28;;;;;;;19.23;14.90;;;;;;;;;;5074665;28;20396;-62
2022/08/22 09:29:08;;;;;;;20.25;14.85;;;;;;;;;;5035887;28;20097;-63
2022/08/22 09:31:36;;;;;;;18.10;14.38;;;;;;;;;;5056890;28;20485;-59
2022/08/22 09:34:06;;;;;;;20.75;15.00;;;;;;;;;;5056252;28;20024;-59
2022/08/22 09:36:40;;;;;;;20.42;15.18;;;;;;;;;;5074555;28;20032;-58
2022/08/22 09:39:15;;;;;;;19.65;14.60;;;;;;;;;;5073718;28;20473;-56
2022/08/22 09:41:47;;;;;;;21.15;14.18;;;;;;;;;;5056560;28;20385;-56
2022/08/22 09:44:20;;;;;;;18.35;14.05;;;;;;;;;;5074313;28;20149;-59
2022/08/22 09:46:53;;;;;;;22.00;15.48;;;;;;;;;;5074364;28;20024;-53
2022/08/22 09:49:23;;;;;;;19.15;13.93;;;;;;;;;;5073581;28;20025;-55
2022/08/22 09:51:52;;;;;;;18.80;14.73;;;;;;;;;;5074302;28;20070;-59
2022/08/22 09:54:21;;;;;;;17.55;14.05;;;;;;;;;;5074162;28;20021;-59
2022/08/22 09:56:48;;;;;;;18.15;14.32;;;;;;;;;;5073985;28;20103;-60
2022/08/22 09:59:32;;;;;;;18.35;14.05;;;;;;;;;;5065323;28;20031;-58
2022/08/22 10:02:01;;;;;;;19.15;14.00;;;;;;;;;;5063022;28;20021;-55
2022/08/22 10:04:39;;;;;;;18.52;13.45;;;;;;;;;;5063247;28;20025;-58
2022/08/22 10:07:11;;;;;;;18.98;14.00;;;;;;;;;;5048700;28;20040;-61
2022/08/22 10:09:46;;;;;;;19.75;14.73;;;;;;;;;;5062394;28;20152;-55
2022/08/22 10:12:17;;;;;;;17.23;14.65;;;;;;;;;;5062871;28;20093;-59
2022/08/22 10:15:03;;;;;;;17.75;14.23;;;;;;;;;;5051948;28;20035;-54
2022/08/22 10:17:37;;;;;;;18.48;14.32;;;;;;;;;;5073284;28;20556;-53
2022/08/22 10:20:09;;;;;;;19.05;14.23;;;;;;;;;;5073540;28;20025;-59
2022/08/22 10:22:43;;;;;;;17.23;14.60;;;;;;;;;;5073818;28;20073;-57
2022/08/22 10:25:27;;;;;;;19.15;13.85;;;;;;;;;;5073353;28;20028;-57
2022/08/22 10:28:10;;;;;;;19.63;14.32;;;;;;;;;;5054705;28;20088;-59
2022/08/22 10:30:55;;;;;;;18.92;13.82;;;;;;;;;;5072780;28;20111;-58
2022/08/22 10:33:21;;;;;;;18.88;14.10;;;;;;;;;;5073750;28;20392;-58
2022/08/22 10:35:47;;;;;;;19.13;14.52;;;;;;;;;;5056559;28;20021;-58
2022/08/22 10:38:35;;;;;;;17.52;13.85;;;;;;;;;;5063002;28;20396;-58
2022/08/22 10:41:01;;;;;;;;;;;;;;;;;;5053994;28;20025;-59
2022/08/22 10:43:27;;;;;;;18.65;14.90;;;;;;;;;;5053549;28;20357;-59
2022/08/22 10:46:00;;;;;;;19.80;14.82;;;;;;;;;;5053416;28;20043;-60
2022/08/22 10:48:26;;;;;;;20.13;15.10;;;;;;;;;;5052647;28;20037;-57
2022/08/22 10:50:57;;;;;;;18.60;14.70;;;;;;;;;;5035646;28;20104;-59
2022/08/22 10:53:50;;;;;;;18.30;14.93;;;;;;;;;;5053401;28;20400;-59
2022/08/22 10:56:28;;;;;;;17.83;15.00;;;;;;;;;;5022067;28;20045;-60
2022/08/22 10:59:13;;;;;;;17.67;15.27;;;;;;;;;;5051988;28;20017;-59
2022/08/22 11:01:45;;;;;;;18.85;16.00;;;;;;;;;;5053174;28;20048;-60
2022/08/22 11:04:21;;;;;;;19.08;16.48;;;;;;;;;;5053163;28;20719;-61
2022/08/22 11:07:13;;;;;;;18.40;16.20;;;;;;;;;;5052586;28;20029;-61
2022/08/22 11:09:41;;;;;;;18.35;16.05;;;;;;;;;;5052983;28;20382;-60
2022/08/22 11:12:19;;;;;;;21.20;16.50;;;;;;;;;;5063450;28;20105;-58
2022/08/22 11:15:04;;;;;;;18.00;16.10;;;;;;;;;;5073086;28;20052;-58
2022/08/22 11:17:49;;;;;;;19.60;16.77;;;;;;;;;;5072393;28;20120;-59
2022/08/22 11:20:39;;;;;;;18.27;16.27;;;;;;;;;;5072957;28;20102;-60
2022/08/22 11:23:28;;;;;;;18.52;16.52;;;;;;;;;;5060308;28;20040;-61
2022/08/22 11:26:24;;;;;;;19.92;17.02;;;;;;;;;;5072413;28;20025;-60
2022/08/22 11:28:59;;;;;;;19.27;16.60;;;;;;;;;;5050894;28;20044;-63
2022/08/22 11:31:47;;;;;;;19.40;17.30;;;;;;;;;;5072940;28;20103;-61
2022/08/22 11:34:16;;;;;;;20.10;16.27;;;;;;;;;;5085451;28;20470;-63
2022/08/22 11:36:48;;;;;;;18.70;15.98;;;;;;;;;;5076349;28;20039;-61
2022/08/22 11:39:24;;;;;;;20.50;16.48;;;;;;;;;;5092820;28;20031;-61
2022/08/22 11:41:53;;;;;;;19.88;16.92;;;;;;;;;;5076843;28;20492;-63
2022/08/22 11:44:23;;;;;;;19.05;16.73;;;;;;;;;;5095086;28;20024;-62
2022/08/22 11:46:51;;;;;;;18.48;16.40;;;;;;;;;;5095731;28;20461;-62
2022/08/22 11:49:26;;;;;;;18.95;16.38;;;;;;;;;;5093778;28;20028;-63
2022/08/22 11:51:56;;;;;;;19.17;16.80;;;;;;;;;;5092873;28;20099;-62
2022/08/22 11:54:28;;;;;;;18.45;16.55;;;;;;;;;;5092199;28;20043;-59
2022/08/22 11:57:02;;;;;;;19.70;17.10;;;;;;;;;;5099838;22;20068;-55
2022/08/22 11:59:48;;;;;;;19.23;17.08;;;;;;;;;;5071041;28;20698;-56
2022/08/22 12:02:37;;;;;;;18.25;16.27;;;;;;;;;;5070536;28;20124;-58
2022/08/22 12:05:09;;;;;;;18.88;16.88;;;;;;;;;;5041002;28;20428;-57
2022/08/22 12:07:38;;;;;;;19.98;16.63;;;;;;;;;;5070464;28;20547;-58
2022/08/22 12:10:08;;;;;;;19.48;16.92;;;;;;;;;;5071565;28;20058;-56
2022/08/22 12:12:54;;;;;;;18.98;16.63;;;;;;;;;;5071215;28;20029;-56
2022/08/22 12:15:42;;;;;;;18.92;16.45;;;;;;;;;;5052682;28;20024;-56
2022/08/22 12:18:14;;;;;;;20.02;16.38;;;;;;;;;;5069377;28;20036;-55
2022/08/22 12:20:43;;;;;;;18.75;16.52;;;;;;;;;;5071289;28;20049;-55
2022/08/22 12:23:28;;;;;;;20.38;16.00;;;;;;;;;;5071157;28;20472;-58
2022/08/22 12:25:54;;;;;;;17.60;15.70;;;;;;;;;;5071018;28;20104;-54
2022/08/22 12:28:20;;;;;;;19.27;15.98;;;;;;;;;;5070280;28;20067;-56
2022/08/22 12:31:02;;;;;;;19.60;16.05;;;;;;;;;;5071026;28;20078;-58
2022/08/22 12:33:47;;;;;;;18.00;16.10;;;;;;;;;;5070705;28;20032;-52
2022/08/22 12:36:19;;;;;;;20.17;15.88;;;;;;;;;;5070713;28;20074;-55
2022/08/22 12:38:50;;;;;;;18.65;15.57;;;;;;;;;;5070177;28;20028;-55
2022/08/22 12:41:28;;;;;;;20.25;15.27;;;;;;;;;;5070922;28;20392;-55
2022/08/22 12:43:57;;;;;;;19.15;15.60;;;;;;;;;;5070882;28;20020;-53
2022/08/22 12:46:42;;;;;;;17.45;15.55;;;;;;;;;;5070823;28;20085;-58
2022/08/22 12:49:11;;;;;;;19.50;15.77;;;;;;;;;;5069939;28;20032;-58
2022/08/22 12:51:40;;;;;;;17.73;15.65;;;;;;;;;;5070762;28;20031;-55
2022/08/22 12:54:21;;;;;;;17.67;15.48;;;;;;;;;;5072963;28;20120;-58
2022/08/22 12:57:03;;;;;;;18.92;15.30;;;;;;;;;;5073826;28;20032;-55
2022/08/22 12:59:35;;;;;;;18.33;15.43;;;;;;;;;;5055770;28;20024;-59
2022/08/22 13:02:10;;;;;;;18.20;15.63;;;;;;;;;;5085397;28;20165;-53
2022/08/22 13:04:43;;;;;;;18.08;15.35;;;;;;;;;;5094241;28;20024;-58
2022/08/22 13:07:22;;;;;;;19.55;15.90;;;;;;;;;;5094344;28;20031;-58
2022/08/22 13:09:53;;;;;;;18.10;15.30;;;;;;;;;;5094241;28;20016;-54
2022/08/22 13:12:31;;;;;;;17.40;15.52;;;;;;;;;;5081346;28;20037;-54
2022/08/22 13:14:57;;;;;;;;;;;;;;;;;;5056687;28;20029;-59
2022/08/22 13:17:23;;;;;;;17.77;14.57;;;;;;;;;;5072132;28;19931;-58
2022/08/22 13:19:55;;;;;;;17.67;15.20;;;;;;;;;;5073924;28;20042;-55
2022/08/22 13:22:25;;;;;;;20.00;15.43;;;;;;;;;;5073858;28;20464;-56
2022/08/22 13:24:55;;;;;;;17.73;15.18;;;;;;;;;;5073919;28;20021;-57
2022/08/22 13:27:25;;;;;;;19.23;15.30;;;;;;;;;;5073078;28;20029;-55
2022/08/22 13:29:53;;;;;;;19.27;15.82;;;;;;;;;;5073826;28;20443;-57
2022/08/22 13:32:25;;;;;;;17.63;14.68;;;;;;;;;;5073955;28;20021;-55
2022/08/22 13:34:53;;;;;;;19.15;14.77;;;;;;;;;;5073765;28;20396;-57
2022/08/22 13:37:24;;;;;;;18.17;14.43;;;;;;;;;;5073048;28;20519;-57
2022/08/22 13:39:52;;;;;;;19.85;15.07;;;;;;;;;;5073848;28;20444;-55
2022/08/22 13:42:22;;;;;;;17.60;15.32;;;;;;;;;;4715961;28;10000106;-54
2022/08/22 13:44:51;;;;;;;20.08;15.82;;;;;;;;;;4717951;28;10000054;-55
2022/08/22 13:47:18;;;;;;;18.95;15.15;;;;;;;;;;5051625;28;20548;-55
2022/08/22 13:49:46;;;;;;;19.38;15.23;;;;;;;;;;5051607;28;20428;-53
2022/08/22 13:52:12;;;;;;;17.10;14.65;;;;;;;;;;5069852;28;20047;-58
2022/08/22 13:54:57;;;;;;;17.52;14.70;;;;;;;;;;5070904;28;20055;-57
2022/08/22 13:57:23;;;;;;;17.30;15.00;;;;;;;;;;5070575;28;20092;-56
2022/08/22 13:59:49;;;;;;;17.42;15.07;;;;;;;;;;5054786;28;20109;-54
2022/08/22 14:02:15;;;;;;;18.02;15.55;;;;;;;;;;5049564;28;20133;-54
2022/08/22 14:04:42;;;;;;;18.77;15.50;;;;;;;;;;5030651;28;20112;-48
2022/08/22 14:07:08;;;;;;;19.15;15.48;;;;;;;;;;5066082;28;20032;-54
2022/08/22 14:09:53;;;;;;;17.90;15.07;;;;;;;;;;5050790;28;20028;-51
2022/08/22 14:12:23;;;;;;;19.90;15.23;;;;;;;;;;5057266;28;20043;-54
2022/08/22 14:14:55;;;;;;;17.15;14.30;;;;;;;;;;5052728;28;20033;-50
2022/08/22 14:17:23;;;;;;;17.77;14.73;;;;;;;;;;5041055;28;20028;-52
2022/08/22 14:20:01;;;;;;;17.95;14.80;;;;;;;;;;5057985;28;20512;-52
2022/08/22 14:22:31;;;;;;;18.27;14.50;;;;;;;;;;5066039;28;20036;-52
2022/08/22 14:24:59;;;;;;;18.60;15.30;;;;;;;;;;5036602;28;20036;-55
2022/08/22 14:27:25;;;;;;;;;;;;;;;;;;5051625;28;20515;-53
2022/08/22 14:29:53;;;;;;;18.88;15.40;;;;;;;;;;5054792;28;19915;-52
2022/08/22 14:32:19;;;;;;;18.65;15.65;;;;;;;;;;5048807;28;20397;-53
2022/08/22 14:34:47;;;;;;;18.00;14.77;;;;;;;;;;5033271;28;20039;-57
2022/08/22 14:37:13;;;;;;;;;;;;;;;;;;5055988;28;20063;-56
2022/08/22 14:39:53;;;;;;;17.15;14.02;;;;;;;;;;5055888;28;19904;-54
2022/08/22 14:42:19;;;;;;;17.35;14.65;;;;;;;;;;5068234;28;20094;-61
2022/08/22 14:44:45;;;;;;;21.13;14.45;;;;;;;;;;5061542;28;20044;-60
2022/08/22 14:47:21;;;;;;;16.25;14.32;;;;;;;;;;5049914;28;20550;-60
2022/08/22 14:49:47;;;;;;;17.27;14.52;;;;;;;;;;5051898;28;20029;-59
2022/08/22 14:52:25;;;;;;;19.33;15.00;;;;;;;;;;5034227;28;20025;-59
2022/08/22 14:55:04;;;;;;;20.55;15.55;;;;;;;;;;5052648;28;20397;-60
2022/08/22 14:57:30;;;;;;;19.60;14.77;;;;;;;;;;5051275;28;20045;-57
2022/08/22 14:59:56;;;;;;;19.55;14.85;;;;;;;;;;5052124;28;20032;-58
2022/08/22 15:02:30;;;;;;;18.45;14.43;;;;;;;;;;5051911;28;20029;-58
2022/08/22 15:05:00;;;;;;;19.77;15.73;;;;;;;;;;5051722;28;20017;-55